Pompano Beach, FL

9:25 AM EDT on August 30, 2016 (GMT -0400)
Pompano Beach | | Change Station
Active Advisory: Coastal Hazard Statement

Elev 20 ft 26.25 °N, 80.11 °W | Updated 32 minutes ago

Overcast
Overcast
78 °F
Feels Like 78 °F
N
0
Wind Variable Wind from North

Today
High -- | Low -- °F
--% Chance of Precip.
Yesterday
High -- | Low -- °F
Precip. -- in
Pressure 29.94 in
Visibility 10.0 miles
Clouds Scattered Clouds 6000 ft
Overcast 9000 ft
Dew Point 74 °F
Humidity 87%
Rainfall 0.02 in
Snow Depth Not available.
6:59 AM 7:41 PM
Waning Crescent, 4% visible
METAR KPMP 301253Z 00000KT 10SM SCT060 OVC090 26/23 A2994 RMK AO2 SLP139 T02560233 $
Pressure 29.94 in
Visibility 10.0 miles
Clouds Scattered Clouds 6000 ft
Overcast 9000 ft
Dew Point 74 °F
Humidity 87%
Rainfall 0.02 in
Snow Depth Not available.
6:59 AM 7:41 PM
Waning Crescent, 4% visible
METAR KPMP 301253Z 00000KT 10SM SCT060 OVC090 26/23 A2994 RMK AO2 SLP139 T02560233 $

10-Day Weather Forecast

Almanac

Astronomy

Aug. 30, 2016 Rise Set
Actual Time
Civil Twilight
Nautical Twilight
Astronomical Twilight
Moon
Length of Visible Light
Length of Day
Tomorrow will be .
, % of the Moon is Illuminated

Today's Extremes

State Highs State Lows

Community

WunderPhotos

Upload Photos

1,935,831 photos uploaded!

WunderBlog® & News

Nearby

Air Quality

  Air Quality AQ Index Pollutant
Not available.

Snow Depth

Station Depth Elevation

Earthquake Activity

City Distance Mag. Time & Date
Minimum magnitude displayed is 2.5.

Coastal Water Temperatures

Place Temperature

Stations

Nearby Weather Stations

Station Location Temp. Windchill Dew Point Humidity Wind Precip. Elev Updated Type
                   

Watches & Warnings

Coastal Hazard Statement
Issued: 3:18 AM EDT Aug. 30, 2016 – National Weather Service

... High rip current risk now in effect through Wednesday
morning...

* timing... through Wednesday morning.

* Impacts... rough surf and rip currents will continue create
dangerous conditions for swimmers.

Precautionary/preparedness actions...

There is a high risk of rip currents.

Rip currents are powerful channels of water flowing quickly away
from shore... which occur most often at low spots or breaks in The
Sandbar and in the vicinity of structures such as groins... jetties
and piers. Heed the advice of lifeguards... beach patrol flags and
signs.

If you become caught in a rip current... Yell for help. Remain
calm... do not exhaust yourself and stay afloat while waiting for
help. If you have to swim out of a rip current... swim parallel to
shore and back toward the beach when possible. Do not attempt to
swim directly against a rip current as you will tire quickly.

Swim near a lifeguard. If caught in a rip current remain calm.
Don't fight the current. Swim in a direction following the
shoreline. If unable to escape... face the shore and call or wave
for help. If tired... float or tread water until out of the rip
current.




Http://www.Weather.Gov/Miami